Time;durP1;ratioP1;P1;durP2;ratioP2;P2;SDS_P1;SDS_P2;PMS_P1;PMS_P2;Temp;Humidity;BMP_temperature;BMP_pressure;BME280_temperature;BME280_humidity;BME280_pressure;Samples;Min_cycle;Max_cycle;Signal;HPM_P1;HPM_P2
2023/02/13 00:02:09;;;;;;;28.25;22.65;;;7.10;99.90;;;;;;5000517;28;20981;-72
2023/02/13 00:04:35;;;;;;;30.92;23.17;;;7.10;99.90;;;;;;4981083;28;21034;-72
2023/02/13 00:07:01;;;;;;;31.02;23.23;;;7.20;99.90;;;;;;4966930;28;20060;-72
2023/02/13 00:09:27;;;;;;;29.58;23.88;;;7.20;99.90;;;;;;5001535;28;20052;-72
2023/02/13 00:11:52;;;;;;;28.38;21.80;;;7.30;99.90;;;;;;5001548;28;20168;-72
2023/02/13 00:14:18;;;;;;;30.52;23.75;;;7.20;99.90;;;;;;5003097;28;20151;-71
2023/02/13 00:16:44;;;;;;;31.85;23.55;;;7.30;99.90;;;;;;4986392;28;20340;-72
2023/02/13 00:19:10;;;;;;;31.13;24.55;;;7.30;99.90;;;;;;5001726;28;20079;-72
2023/02/13 00:21:35;;;;;;;30.73;22.90;;;7.30;99.90;;;;;;4970280;28;20053;-72
2023/02/13 00:24:01;;;;;;;28.02;22.63;;;7.30;99.90;;;;;;4985826;28;20057;-72
2023/02/13 00:26:27;;;;;;;31.13;23.90;;;7.30;99.90;;;;;;4969080;28;21069;-72
2023/02/13 00:28:53;;;;;;;30.33;23.50;;;7.30;99.90;;;;;;4986811;28;20034;-73
2023/02/13 00:31:20;;;;;;;32.72;24.60;;;7.30;99.90;;;;;;4999860;28;20049;-73
2023/02/13 00:33:47;;;;;;;30.48;23.75;;;7.20;99.90;;;;;;5002700;28;20041;-73
2023/02/13 00:36:21;;;;;;;33.72;24.90;;;7.30;99.90;;;;;;5002363;28;20061;-73
2023/02/13 00:38:48;;;;;;;32.17;24.42;;;7.20;99.90;;;;;;5001696;28;20049;-72
2023/02/13 00:41:16;;;;;;;32.30;24.52;;;7.20;99.90;;;;;;5004522;28;20321;-72
2023/02/13 00:43:43;;;;;;;33.38;25.52;;;7.20;99.90;;;;;;4988753;28;20058;-74
2023/02/13 00:46:09;;;;;;;32.97;24.98;;;7.20;99.90;;;;;;5005580;28;20126;-74
2023/02/13 00:48:35;;;;;;;29.38;22.80;;;7.20;99.90;;;;;;5000865;28;20049;-74
2023/02/13 00:51:01;;;;;;;31.10;25.02;;;7.20;99.90;;;;;;4986657;28;21122;-74
2023/02/13 00:53:27;;;;;;;31.30;24.27;;;7.20;99.90;;;;;;5004646;28;20103;-73
2023/02/13 00:55:53;;;;;;;31.45;25.05;;;7.20;99.90;;;;;;5004623;28;20064;-72
2023/02/13 00:58:19;;;;;;;32.20;24.23;;;7.20;99.90;;;;;;4989396;28;20045;-72
2023/02/13 01:00:46;;;;;;;32.33;25.30;;;7.20;99.90;;;;;;4987322;28;20168;-72
2023/02/13 01:03:13;;;;;;;33.30;25.27;;;7.20;99.90;;;;;;4989766;28;20084;-72
2023/02/13 01:05:39;;;;;;;32.67;25.48;;;7.20;99.90;;;;;;5004426;28;20050;-75
2023/02/13 01:08:05;;;;;;;34.47;26.85;;;7.20;99.90;;;;;;4963352;28;20119;-73
2023/02/13 01:10:31;;;;;;;36.83;26.70;;;7.20;99.90;;;;;;4992250;28;20046;-73
2023/02/13 01:12:57;;;;;;;31.85;25.10;;;7.20;99.90;;;;;;4992517;28;20120;-73
2023/02/13 01:15:23;;;;;;;32.97;25.33;;;7.20;99.90;;;;;;4993766;28;21459;-73
2023/02/13 01:17:49;;;;;;;32.90;26.50;;;7.20;99.90;;;;;;4980570;28;20072;-73
2023/02/13 01:20:14;;;;;;;34.25;27.48;;;7.20;99.90;;;;;;4978589;28;21880;-73
2023/02/13 01:22:43;;;;;;;32.83;25.33;;;7.20;99.90;;;;;;4978075;28;20745;-73
2023/02/13 01:25:09;;;;;;;33.55;26.13;;;7.20;99.90;;;;;;4976828;28;20570;-73
2023/02/13 01:27:36;;;;;;;34.38;25.70;;;7.20;99.90;;;;;;4978863;28;20050;-73
2023/02/13 01:30:12;;;;;;;35.35;26.25;;;7.20;99.90;;;;;;4960995;28;20725;-73
2023/02/13 01:32:39;;;;;;;33.67;25.70;;;7.20;99.90;;;;;;4976303;28;20088;-74
2023/02/13 01:35:05;;;;;;;35.17;26.38;;;7.10;99.90;;;;;;4958260;28;20061;-72
2023/02/13 01:37:32;;;;;;;32.53;25.13;;;7.10;99.90;;;;;;4992966;28;20053;-72
2023/02/13 01:39:57;;;;;;;31.83;23.98;;;7.10;99.90;;;;;;4991234;28;20054;-74
2023/02/13 01:42:32;;;;;;;30.88;24.20;;;7.10;99.90;;;;;;4974502;28;20041;-74
2023/02/13 01:45:18;;;;;;;31.95;26.13;;;7.10;99.90;;;;;;4975746;28;20065;-74
2023/02/13 01:47:49;;;;;;;33.13;25.30;;;7.10;99.90;;;;;;4975568;28;20421;-74
2023/02/13 01:50:55;;;;;;;32.65;25.83;;;7.10;99.90;;;;;;4989127;28;20057;-74
2023/02/13 01:53:42;;;;;;;31.98;24.67;;;7.10;99.90;;;;;;5007494;28;20057;-75
2023/02/13 01:56:12;;;;;;;31.45;24.73;;;7.10;99.90;;;;;;4977425;28;20140;-72
2023/02/13 01:58:40;;;;;;;30.65;23.75;;;7.10;99.90;;;;;;4969643;28;20046;-72
2023/02/13 02:01:08;;;;;;;34.28;25.25;;;7.10;99.90;;;;;;4991380;28;20517;-73
2023/02/13 02:03:45;;;;;;;32.55;24.88;;;7.00;99.90;;;;;;4974024;28;20462;-73
2023/02/13 02:06:18;;;;;;;32.40;23.70;;;7.00;99.90;;;;;;4991028;28;20055;-72
2023/02/13 02:08:47;;;;;;;34.38;24.10;;;7.00;99.90;;;;;;4981049;28;20526;-72
2023/02/13 02:11:27;;;;;;;30.70;22.48;;;6.90;99.90;;;;;;4998990;28;20402;-74
2023/02/13 02:13:53;;;;;;;;;;;6.90;99.90;;;;;;4977653;28;20054;-73
2023/02/13 02:16:19;;;;;;;29.40;21.90;;;6.90;99.90;;;;;;4998877;28;20112;-73
2023/02/13 02:18:45;;;;;;;30.90;22.13;;;6.80;99.90;;;;;;4983894;28;20432;-73
2023/02/13 02:21:42;;;;;;;29.90;22.20;;;6.90;99.90;;;;;;4954355;28;20041;-73
2023/02/13 02:24:08;;;;;;;32.97;22.95;;;6.80;99.90;;;;;;4984951;28;20079;-73
2023/02/13 02:26:58;;;;;;;31.10;21.52;;;6.80;99.90;;;;;;4986397;28;20049;-73
2023/02/13 02:29:37;;;;;;;;;;;6.80;99.90;;;;;;4998661;28;20920;-73
2023/02/13 02:32:12;;;;;;;32.00;22.40;;;6.80;99.90;;;;;;4982288;28;19935;-74
2023/02/13 02:34:47;;;;;;;30.48;22.95;;;6.70;99.90;;;;;;4976124;28;21522;-73
2023/02/13 02:37:48;;;;;;;33.35;22.98;;;6.70;99.90;;;;;;4996416;28;20492;-72
2023/02/13 02:40:33;;;;;;;33.17;23.05;;;6.70;99.90;;;;;;4949072;28;20049;-72
2023/02/13 02:43:21;;;;;;;32.45;23.52;;;6.70;99.90;;;;;;4989640;28;20057;-74
2023/02/13 02:45:56;;;;;;;36.83;25.38;;;6.70;99.90;;;;;;5000713;28;20049;-74
2023/02/13 02:51:36;;;;;;;30.70;22.10;;;6.70;99.90;;;;;;5003989;28;20088;-74
2023/02/13 02:57:03;;;;;;;30.80;23.33;;;6.70;99.90;;;;;;4997355;28;20853;-74
2023/02/13 03:08:11;;;;;;;32.22;23.92;;;6.60;99.90;;;;;;5019133;28;20596;-74
2023/02/13 03:13:37;;;;;;;33.55;24.58;;;6.70;99.90;;;;;;4986253;28;20088;-74
2023/02/13 03:25:04;;;;;;;32.35;23.40;;;6.60;99.90;;;;;;4995928;28;20543;-74
2023/02/13 03:30:39;;;;;;;33.20;22.65;;;6.60;99.90;;;;;;4999049;28;20064;-74
2023/02/13 03:33:50;;;;;;;34.00;24.02;;;6.60;99.90;;;;;;4993154;28;20054;-74
2023/02/13 03:40:07;;;;;;;31.92;22.83;;;6.60;99.90;;;;;;4994570;28;20617;-74
2023/02/13 03:43:01;;;;;;;32.20;22.85;;;6.60;99.90;;;;;;4994888;28;20123;-73
2023/02/13 03:51:06;;;;;;;29.92;21.88;;;6.60;99.90;;;;;;4993669;28;20054;-72
2023/02/13 03:53:39;;;;;;;32.30;22.52;;;6.60;99.90;;;;;;4994903;28;20130;-72
2023/02/13 04:01:47;;;;;;;29.35;20.77;;;6.60;99.90;;;;;;4998049;28;20065;-72
2023/02/13 04:05:08;;;;;;;30.33;22.23;;;6.60;99.90;;;;;;4991492;28;21289;-73
2023/02/13 04:07:34;;;;;;;31.02;22.38;;;6.60;99.90;;;;;;4909573;28;20046;-73
2023/02/13 04:10:11;;;;;;;29.15;20.90;;;6.60;99.90;;;;;;4924290;28;20101;-73
2023/02/13 04:12:53;;;;;;;36.22;25.13;;;6.60;99.90;;;;;;4912552;28;20059;-71
2023/02/13 04:15:30;;;;;;;31.45;23.05;;;6.60;99.90;;;;;;4964621;28;20191;-71
2023/02/13 04:18:21;;;;;;;33.58;23.73;;;6.70;99.90;;;;;;5003956;28;20144;-73
2023/02/13 04:20:50;;;;;;;32.03;23.17;;;6.70;99.90;;;;;;5005711;28;20784;-72
2023/02/13 04:23:16;;;;;;;31.77;22.15;;;6.60;99.90;;;;;;5005679;28;21163;-71
2023/02/13 04:25:45;;;;;;;31.27;23.70;;;6.60;99.90;;;;;;4971380;28;20052;-74
2023/02/13 04:28:11;;;;;;;29.23;21.87;;;6.60;99.90;;;;;;5002138;28;20728;-73
2023/02/13 04:30:37;;;;;;;32.30;22.33;;;6.70;99.90;;;;;;4988939;28;20145;-74
2023/02/13 04:33:03;;;;;;;34.90;24.40;;;6.60;99.90;;;;;;4971274;28;20148;-72
2023/02/13 04:35:29;;;;;;;31.02;22.42;;;6.60;99.90;;;;;;4988520;28;20268;-72
2023/02/13 04:37:55;;;;;;;32.70;22.92;;;6.70;99.90;;;;;;4988746;28;20562;-74
2023/02/13 04:40:20;;;;;;;32.95;23.15;;;6.70;99.90;;;;;;4988552;28;20049;-74
2023/02/13 04:42:48;;;;;;;32.53;22.75;;;6.70;99.90;;;;;;4989090;28;20037;-74
2023/02/13 04:45:14;;;;;;;32.08;23.55;;;6.60;99.90;;;;;;5003817;28;20057;-74
2023/02/13 04:47:39;;;;;;;32.80;23.52;;;6.70;99.90;;;;;;5000211;28;20060;-73
2023/02/13 04:50:06;;;;;;;28.48;21.90;;;6.70;99.90;;;;;;4995476;28;20064;-74
2023/02/13 04:52:31;;;;;;;30.15;22.38;;;6.60;99.90;;;;;;4997930;28;20041;-73
2023/02/13 04:54:57;;;;;;;32.00;23.13;;;6.60;99.90;;;;;;4998606;28;20209;-73
2023/02/13 04:57:23;;;;;;;31.33;22.70;;;6.70;99.90;;;;;;4969251;28;20748;-73
2023/02/13 04:59:49;;;;;;;34.15;24.00;;;6.60;99.90;;;;;;4998511;28;20053;-74
2023/02/13 05:02:15;;;;;;;28.05;22.15;;;6.60;99.90;;;;;;4984380;28;20104;-74
2023/02/13 05:04:41;;;;;;;30.40;22.63;;;6.60;99.90;;;;;;4984616;28;20134;-73
2023/02/13 05:07:07;;;;;;;30.63;22.65;;;6.60;99.90;;;;;;4983826;28;20058;-73
2023/02/13 05:09:33;;;;;;;34.95;23.67;;;6.60;99.90;;;;;;4985052;28;20060;-74
2023/02/13 05:11:59;;;;;;;31.90;22.75;;;6.60;99.90;;;;;;4984841;28;20507;-73
2023/02/13 05:14:28;;;;;;;29.90;22.35;;;6.60;99.90;;;;;;4983996;28;20052;-73
2023/02/13 05:16:53;;;;;;;30.80;21.95;;;6.60;99.90;;;;;;4999129;28;20044;-74
2023/02/13 05:19:19;;;;;;;37.53;25.23;;;6.60;99.90;;;;;;4992860;28;20049;-71
2023/02/13 05:24:32;;;;;;;29.02;21.75;;;6.60;99.90;;;;;;4997944;28;20079;-71
2023/02/13 05:26:58;;;;;;;32.97;24.73;;;6.60;99.90;;;;;;4998814;28;20060;-71
2023/02/13 05:29:27;;;;;;;33.60;22.98;;;6.60;99.90;;;;;;4969041;28;20044;-72
2023/02/13 05:31:57;;;;;;;32.45;21.92;;;6.60;99.90;;;;;;4980475;28;20100;-73
2023/02/13 05:34:24;;;;;;;32.30;23.20;;;6.60;99.90;;;;;;4997761;28;20049;-72
2023/02/13 05:36:50;;;;;;;30.25;22.70;;;6.70;99.90;;;;;;4965166;28;20106;-72
2023/02/13 05:39:16;;;;;;;36.83;24.63;;;6.60;99.90;;;;;;4997601;28;20045;-72
2023/02/13 05:41:44;;;;;;;33.38;24.05;;;6.60;99.90;;;;;;4978389;28;20060;-72
2023/02/13 05:44:10;;;;;;;30.13;21.65;;;6.60;99.90;;;;;;4981515;28;20186;-72
2023/02/13 05:46:37;;;;;;;30.92;22.92;;;6.60;99.90;;;;;;4995752;28;20488;-73
2023/02/13 05:49:03;;;;;;;31.30;22.98;;;6.60;99.90;;;;;;4996264;28;20098;-73
2023/02/13 05:51:29;;;;;;;28.77;22.58;;;6.60;99.90;;;;;;4997984;28;20076;-71
2023/02/13 05:53:55;;;;;;;32.17;22.40;;;6.60;99.90;;;;;;4998159;28;20541;-74
2023/02/13 05:56:21;;;;;;;32.38;22.90;;;6.60;99.90;;;;;;4998569;28;20494;-74
2023/02/13 05:58:50;;;;;;;31.20;23.60;;;6.60;99.90;;;;;;4998805;28;21384;-74
2023/02/13 06:01:16;;;;;;;32.20;23.50;;;6.60;99.90;;;;;;4998452;28;20114;-73
2023/02/13 06:03:42;;;;;;;32.70;24.08;;;6.50;99.90;;;;;;4998117;28;20045;-73
2023/02/13 06:06:08;;;;;;;31.50;24.10;;;6.60;99.90;;;;;;4981948;28;20325;-73
2023/02/13 06:08:34;;;;;;;35.03;24.48;;;6.60;99.90;;;;;;4967791;28;20059;-72
2023/02/13 06:11:00;;;;;;;36.13;25.17;;;6.60;99.90;;;;;;4983921;28;20057;-72
2023/02/13 06:13:26;;;;;;;34.78;25.02;;;6.60;99.90;;;;;;4999494;28;20045;-72
2023/02/13 06:15:52;;;;;;;36.40;25.15;;;6.60;99.90;;;;;;4970122;28;20041;-72
2023/02/13 06:18:18;;;;;;;30.42;22.30;;;6.60;99.90;;;;;;4997181;28;20052;-72
2023/02/13 06:20:44;;;;;;;32.55;23.20;;;6.60;99.90;;;;;;4991285;28;20041;-72
2023/02/13 06:23:10;;;;;;;34.65;24.88;;;6.60;99.90;;;;;;4960229;28;20409;-72
2023/02/13 06:25:36;;;;;;;36.65;25.00;;;6.60;99.90;;;;;;4997841;28;20425;-72
2023/02/13 06:28:03;;;;;;;36.70;25.90;;;6.60;99.90;;;;;;4966125;28;20069;-72
2023/02/13 06:30:30;;;;;;;29.73;21.63;;;6.60;99.90;;;;;;4978033;28;20045;-72
2023/02/13 06:32:55;;;;;;;29.25;22.45;;;6.60;99.90;;;;;;4978224;28;20519;-72
2023/02/13 06:35:21;;;;;;;31.27;23.23;;;6.60;99.90;;;;;;4964536;28;20049;-72
2023/02/13 06:37:47;;;;;;;32.67;23.67;;;6.70;99.90;;;;;;4981159;28;20041;-73
2023/02/13 06:40:15;;;;;;;34.30;24.73;;;6.60;99.90;;;;;;4979903;28;20053;-75
2023/02/13 06:42:42;;;;;;;32.67;23.80;;;6.60;99.90;;;;;;4980772;28;20041;-75
2023/02/13 06:45:08;;;;;;;32.55;25.10;;;6.60;99.90;;;;;;4965605;28;20417;-74
2023/02/13 06:47:34;;;;;;;31.65;23.85;;;6.60;99.90;;;;;;5000160;28;20610;-74
2023/02/13 06:50:00;;;;;;;32.53;23.20;;;6.60;99.90;;;;;;4981507;28;20041;-72
2023/02/13 06:52:26;;;;;;;34.58;24.67;;;6.60;99.90;;;;;;4999177;28;20064;-75
2023/02/13 06:54:52;;;;;;;32.78;23.02;;;6.60;99.90;;;;;;4966761;28;20981;-74
2023/02/13 06:57:18;;;;;;;36.25;25.17;;;6.60;99.90;;;;;;4985422;28;20137;-74
2023/02/13 06:59:44;;;;;;;32.33;23.10;;;6.50;99.90;;;;;;4998123;28;20052;-74
2023/02/13 07:02:11;;;;;;;35.25;25.10;;;6.40;99.90;;;;;;5000148;28;20375;-74
2023/02/13 07:04:37;;;;;;;36.08;24.80;;;6.40;99.90;;;;;;4997984;28;20045;-75
2023/02/13 07:07:03;;;;;;;31.27;22.48;;;6.40;99.90;;;;;;4968925;28;20063;-75
2023/02/13 07:09:30;;;;;;;32.05;22.77;;;6.50;99.90;;;;;;4999678;28;20052;-75
2023/02/13 07:11:57;;;;;;;34.88;23.95;;;6.40;99.90;;;;;;5000392;28;20079;-74
2023/02/13 07:14:22;;;;;;;32.95;22.85;;;6.50;99.90;;;;;;4999597;28;20074;-74
2023/02/13 07:16:51;;;;;;;34.70;23.40;;;6.40;99.90;;;;;;4982028;28;20052;-75
2023/02/13 07:19:17;;;;;;;35.25;24.67;;;6.50;99.90;;;;;;4982424;28;20135;-75
2023/02/13 07:21:43;;;;;;;33.55;23.13;;;6.50;99.90;;;;;;4984035;28;20049;-74
2023/02/13 07:24:09;;;;;;;32.47;23.63;;;6.50;99.90;;;;;;4982577;28;20048;-73
2023/02/13 07:26:35;;;;;;;32.95;23.65;;;6.50;99.90;;;;;;4965699;28;20163;-73
2023/02/13 07:29:04;;;;;;;31.80;23.23;;;6.60;99.90;;;;;;4982354;28;20048;-73
2023/02/13 07:31:33;;;;;;;32.60;22.98;;;6.60;99.90;;;;;;4967130;28;20049;-73
2023/02/13 07:33:59;;;;;;;32.13;23.05;;;6.60;99.90;;;;;;4998033;28;20084;-72
2023/02/13 07:36:26;;;;;;;35.28;24.17;;;6.60;99.90;;;;;;4997551;28;20143;-73
2023/02/13 07:38:51;;;;;;;31.83;22.98;;;6.60;99.90;;;;;;4982383;28;20045;-73
2023/02/13 07:41:17;;;;;;;33.38;23.70;;;6.60;99.90;;;;;;4965040;28;21250;-72
2023/02/13 07:43:43;;;;;;;32.28;23.52;;;6.60;99.90;;;;;;4980275;28;20053;-73
2023/02/13 07:46:09;;;;;;;34.05;24.05;;;6.70;99.90;;;;;;4998773;28;20048;-73
2023/02/13 07:48:35;;;;;;;32.70;23.30;;;6.70;99.90;;;;;;4981867;28;20475;-75
2023/02/13 07:51:04;;;;;;;30.58;22.55;;;6.70;99.90;;;;;;4966334;28;20059;-72
2023/02/13 07:53:31;;;;;;;33.60;23.55;;;6.70;99.90;;;;;;4997510;28;20716;-75
2023/02/13 07:55:56;;;;;;;32.33;23.80;;;6.70;99.90;;;;;;4998165;28;20052;-74
2023/02/13 07:58:22;;;;;;;31.45;22.48;;;6.70;99.90;;;;;;4980676;28;20477;-74
2023/02/13 08:00:48;;;;;;;33.28;23.13;;;6.70;99.90;;;;;;4967370;28;20044;-75
2023/02/13 08:03:14;;;;;;;32.50;22.63;;;6.70;99.90;;;;;;4997326;28;20048;-74
2023/02/13 08:05:40;;;;;;;33.42;23.58;;;6.80;99.90;;;;;;4977124;28;20583;-74
2023/02/13 08:08:06;;;;;;;32.45;22.35;;;6.80;99.90;;;;;;4964590;28;20057;-74
2023/02/13 08:13:17;;;;;;;31.92;23.15;;;6.80;99.90;;;;;;4982088;28;20500;-75
2023/02/13 08:15:46;;;;;;;31.40;21.95;;;6.80;99.90;;;;;;4982729;28;20060;-75
2023/02/13 08:18:12;;;;;;;31.35;21.27;;;6.90;99.90;;;;;;4995840;28;20124;-75
2023/02/13 08:20:37;;;;;;;31.20;22.17;;;6.90;99.90;;;;;;4998547;28;20224;-74
2023/02/13 08:23:05;;;;;;;29.73;21.30;;;6.90;99.90;;;;;;4980657;28;20083;-75
2023/02/13 08:25:32;;;;;;;32.55;22.48;;;6.90;99.90;;;;;;4982199;28;20053;-74
2023/02/13 08:27:59;;;;;;;29.88;21.27;;;6.90;99.90;;;;;;4979306;28;20715;-75
2023/02/13 08:30:25;;;;;;;30.55;21.75;;;7.00;99.90;;;;;;4985906;28;20074;-74
2023/02/13 08:32:51;;;;;;;31.33;21.92;;;7.00;99.90;;;;;;5001441;28;20382;-74
2023/02/13 08:35:17;;;;;;;30.02;22.23;;;7.00;99.90;;;;;;5004618;28;20222;-75
2023/02/13 08:37:43;;;;;;;33.10;22.52;;;7.00;99.90;;;;;;4970964;28;20127;-74
2023/02/13 08:40:09;;;;;;;31.38;22.40;;;7.00;99.90;;;;;;5001558;28;20476;-73
2023/02/13 08:42:39;;;;;;;29.73;21.27;;;7.00;99.90;;;;;;5001712;28;20060;-73
2023/02/13 08:45:05;;;;;;;28.13;21.33;;;7.00;99.90;;;;;;4969696;28;20792;-73
2023/02/13 08:47:31;;;;;;;32.63;23.50;;;7.00;99.90;;;;;;4984821;28;20099;-72
2023/02/13 08:49:57;;;;;;;31.35;22.73;;;7.00;99.90;;;;;;5004125;28;20091;-74
2023/02/13 08:52:23;;;;;;;31.00;21.65;;;7.00;99.90;;;;;;4968651;28;20048;-71
2023/02/13 08:54:49;;;;;;;29.52;21.42;;;7.00;99.90;;;;;;4984668;28;20850;-73
2023/02/13 08:57:14;;;;;;;29.95;22.27;;;7.10;99.90;;;;;;4968338;28;20053;-73
2023/02/13 08:59:40;;;;;;;31.35;22.10;;;7.10;99.90;;;;;;4969298;28;20204;-73
2023/02/13 09:02:08;;;;;;;29.38;20.83;;;7.10;99.90;;;;;;4999592;28;20052;-75
2023/02/13 09:04:34;;;;;;;30.77;22.48;;;7.10;99.90;;;;;;4988600;28;20045;-73
2023/02/13 09:07:00;;;;;;;31.75;22.70;;;7.10;99.90;;;;;;4968202;28;20592;-73
2023/02/13 09:09:26;;;;;;;28.88;21.27;;;7.20;99.90;;;;;;4984043;28;20045;-74
2023/02/13 09:11:55;;;;;;;29.23;22.35;;;7.20;99.90;;;;;;4982862;28;20573;-73
2023/02/13 09:14:20;;;;;;;32.20;22.55;;;7.20;99.90;;;;;;4985711;28;20189;-73
2023/02/13 09:16:46;;;;;;;30.60;21.83;;;7.20;99.90;;;;;;4954878;28;20637;-73
2023/02/13 09:19:12;;;;;;;31.02;21.15;;;7.20;99.90;;;;;;5002325;28;20044;-73
2023/02/13 09:21:38;;;;;;;30.88;23.10;;;7.20;99.90;;;;;;5000346;28;20329;-73
2023/02/13 09:24:07;;;;;;;32.78;22.67;;;7.30;99.90;;;;;;4985273;28;20522;-73
2023/02/13 09:26:33;;;;;;;30.40;21.75;;;7.30;99.90;;;;;;4985186;28;20482;-73
2023/02/13 09:28:58;;;;;;;33.83;23.70;;;7.30;99.90;;;;;;5000444;28;20132;-73
2023/02/13 09:31:27;;;;;;;30.05;21.92;;;7.30;99.90;;;;;;5001911;28;21294;-73
2023/02/13 09:33:53;;;;;;;30.33;22.30;;;7.30;99.90;;;;;;4983292;28;20127;-73
2023/02/13 09:36:23;;;;;;;31.83;21.17;;;7.30;99.90;;;;;;4986032;28;20644;-73
2023/02/13 09:38:57;;;;;;;33.15;23.33;;;7.40;99.90;;;;;;4967525;28;20697;-73
2023/02/13 09:41:33;;;;;;;31.58;21.27;;;7.40;99.90;;;;;;4985883;28;20053;-74
2023/02/13 09:44:09;;;;;;;31.67;21.85;;;7.40;99.90;;;;;;5001745;28;20499;-73
2023/02/13 09:46:37;;;;;;;33.25;22.90;;;7.40;99.90;;;;;;4984855;28;20849;-74
2023/02/13 09:49:17;;;;;;;31.83;22.63;;;7.50;99.90;;;;;;4986306;28;20051;-74
2023/02/13 09:51:46;;;;;;;31.70;21.55;;;7.50;99.90;;;;;;4999864;28;20291;-74
2023/02/13 09:54:17;;;;;;;34.92;22.75;;;7.50;99.90;;;;;;5001418;28;20057;-73
2023/02/13 09:57:06;;;;;;;31.58;21.63;;;7.50;99.90;;;;;;4982523;28;20048;-74
2023/02/13 09:59:46;;;;;;;30.38;21.45;;;7.60;99.90;;;;;;4988842;28;20110;-72
2023/02/13 10:02:26;;;;;;;30.08;21.00;;;7.70;99.90;;;;;;4999506;28;20061;-72
2023/02/13 10:05:13;;;;;;;29.15;21.52;;;7.70;99.90;;;;;;4981339;28;20041;-73
2023/02/13 10:07:50;;;;;;;31.02;22.77;;;7.70;99.90;;;;;;5000413;28;20517;-72
2023/02/13 10:10:17;;;;;;;31.30;22.27;;;7.70;99.90;;;;;;4983251;28;20052;-75
2023/02/13 10:13:01;;;;;;;31.15;22.27;;;7.80;99.90;;;;;;5000552;28;20519;-73
2023/02/13 10:15:50;;;;;;;31.77;22.23;;;7.80;99.90;;;;;;4983997;28;20056;-73
2023/02/13 10:18:20;;;;;;;30.88;21.92;;;7.90;99.90;;;;;;4989249;28;20057;-73
2023/02/13 10:20:55;;;;;;;32.20;22.45;;;7.90;99.90;;;;;;4983894;28;20050;-74
2023/02/13 10:23:31;;;;;;;31.15;22.40;;;7.90;99.90;;;;;;4983013;28;20250;-73
2023/02/13 10:26:21;;;;;;;30.17;21.88;;;8.00;99.90;;;;;;5000209;28;20393;-73
2023/02/13 10:31:47;;;;;;;32.50;22.50;;;8.00;99.90;;;;;;4997708;28;20299;-73
2023/02/13 10:34:19;;;;;;;30.77;21.92;;;8.10;99.90;;;;;;5000848;28;20076;-72
2023/02/13 10:36:46;;;;;;;27.92;21.20;;;8.10;99.90;;;;;;4998286;28;20415;-73
2023/02/13 10:39:21;;;;;;;31.15;22.88;;;8.10;99.90;;;;;;4999798;28;20056;-73
2023/02/13 10:42:06;;;;;;;32.72;22.70;;;8.10;99.90;;;;;;4983282;28;20192;-73
2023/02/13 10:44:48;;;;;;;30.40;22.02;;;8.20;99.90;;;;;;4983479;28;20087;-73
2023/02/13 10:47:21;;;;;;;30.30;21.33;;;8.20;99.90;;;;;;4997187;28;20056;-73
2023/02/13 10:50:06;;;;;;;29.67;22.30;;;8.30;99.90;;;;;;5000063;28;20072;-73
2023/02/13 10:52:43;;;;;;;31.35;21.77;;;8.30;99.90;;;;;;4984751;28;20102;-73
2023/02/13 10:55:28;;;;;;;30.08;20.83;;;8.30;99.90;;;;;;4998558;28;20874;-72
2023/02/13 10:58:05;;;;;;;29.58;21.10;;;8.30;99.90;;;;;;4999937;28;20573;-74
2023/02/13 11:00:53;;;;;;;27.25;19.95;;;8.50;99.90;;;;;;4985239;28;20377;-75
2023/02/13 11:03:41;;;;;;;27.25;19.73;;;8.40;99.90;;;;;;4994194;28;20064;-75
2023/02/13 11:06:13;;;;;;;27.38;20.77;;;8.40;99.90;;;;;;5001943;28;20965;-75
2023/02/13 11:08:45;;;;;;;28.27;21.20;;;8.40;99.90;;;;;;4979828;28;20396;-73
2023/02/13 11:11:33;;;;;;;27.23;20.83;;;8.40;99.90;;;;;;5000630;28;20064;-73
2023/02/13 11:14:20;;;;;;;28.40;21.85;;;8.50;99.90;;;;;;4999704;28;20045;-73
2023/02/13 11:17:00;;;;;;;26.58;20.08;;;8.50;99.90;;;;;;4981624;28;20510;-73
2023/02/13 11:19:36;;;;;;;28.42;21.88;;;8.50;99.90;;;;;;4999916;28;20308;-73
2023/02/13 11:22:13;;;;;;;30.48;21.63;;;8.50;99.90;;;;;;4998839;28;20053;-73
2023/02/13 11:24:41;;;;;;;26.50;20.55;;;8.50;99.90;;;;;;4998180;28;20057;-73
2023/02/13 11:27:12;;;;;;;29.50;21.05;;;8.50;99.90;;;;;;4984263;28;21251;-73
2023/02/13 11:29:57;;;;;;;28.35;21.70;;;8.60;99.90;;;;;;4998237;28;20050;-73
2023/02/13 11:32:26;;;;;;;29.08;21.92;;;8.60;99.90;;;;;;5000493;28;20049;-73
2023/02/13 11:34:53;;;;;;;26.42;21.50;;;8.60;99.90;;;;;;4982290;28;20198;-73
2023/02/13 11:37:24;;;;;;;28.48;22.08;;;8.70;99.90;;;;;;4998987;28;20975;-73
2023/02/13 11:39:54;;;;;;;27.98;22.65;;;8.70;99.90;;;;;;4981941;28;20506;-73
2023/02/13 11:42:28;;;;;;;29.90;22.27;;;8.70;99.90;;;;;;4982897;28;20080;-73
2023/02/13 11:45:17;;;;;;;27.55;21.73;;;8.80;99.90;;;;;;4999977;28;20052;-73
2023/02/13 11:47:43;;;;;;;26.88;20.60;;;8.80;99.90;;;;;;4997272;28;20064;-73
2023/02/13 11:50:30;;;;;;;27.33;22.02;;;8.80;99.90;;;;;;4966930;28;20033;-75
2023/02/13 11:53:05;;;;;;;30.15;22.50;;;8.90;99.90;;;;;;4984293;28;20403;-75
2023/02/13 11:55:39;;;;;;;27.40;22.13;;;8.90;99.90;;;;;;4997224;28;20049;-75
2023/02/13 11:58:11;;;;;;;26.88;22.30;;;9.00;99.90;;;;;;4999161;28;20118;-73
2023/02/13 12:00:40;;;;;;;27.55;21.55;;;9.00;99.90;;;;;;5000693;28;20041;-73
2023/02/13 12:03:21;;;;;;;27.33;22.13;;;9.00;99.90;;;;;;4964605;28;20041;-73
2023/02/13 12:06:12;;;;;;;27.08;23.05;;;9.10;99.90;;;;;;4997947;28;20053;-73
2023/02/13 12:08:40;;;;;;;27.42;22.58;;;9.10;99.90;;;;;;4996985;28;20080;-73
2023/02/13 12:11:16;;;;;;;29.63;24.00;;;9.10;99.90;;;;;;4983031;28;20045;-73
2023/02/13 12:13:42;;;;;;;28.73;23.42;;;9.10;99.90;;;;;;5000097;28;20724;-73
2023/02/13 12:16:22;;;;;;;29.33;23.58;;;9.20;99.90;;;;;;4981643;28;20503;-73
2023/02/13 12:18:52;;;;;;;27.80;23.10;;;9.30;99.90;;;;;;5000794;28;20060;-73
2023/02/13 12:21:46;;;;;;;29.38;24.40;;;9.30;99.90;;;;;;4981974;28;20107;-73
2023/02/13 12:24:25;;;;;;;30.27;24.27;;;9.40;99.90;;;;;;4985186;28;20045;-73
2023/02/13 12:27:33;;;;;;;26.95;23.67;;;9.40;99.90;;;;;;4981287;28;20131;-74
2023/02/13 12:30:05;;;;;;;28.35;24.83;;;9.40;99.90;;;;;;4982919;28;20464;-73
2023/02/13 12:32:37;;;;;;;29.25;25.67;;;9.50;99.90;;;;;;4982685;28;20087;-73
2023/02/13 12:35:11;;;;;;;31.30;24.75;;;9.50;99.90;;;;;;4983839;28;20060;-73
2023/02/13 12:38:07;;;;;;;29.00;24.30;;;9.60;99.90;;;;;;4983029;28;20052;-73
2023/02/13 12:41:02;;;;;;;30.58;24.40;;;9.60;99.90;;;;;;4982406;28;20119;-75
2023/02/13 12:43:46;;;;;;;30.38;25.35;;;9.60;99.90;;;;;;4998769;28;20059;-73
2023/02/13 12:46:20;;;;;;;29.50;25.13;;;9.70;99.90;;;;;;4983944;28;20072;-73
2023/02/13 12:49:18;;;;;;;29.08;25.08;;;9.70;99.90;;;;;;4996893;28;20060;-72
2023/02/13 12:51:52;;;;;;;23.92;21.38;;;9.80;99.90;;;;;;4993605;28;20219;-72
2023/02/13 12:54:31;;;;;;;27.33;24.42;;;9.80;99.90;;;;;;4985815;28;21368;-73
2023/02/13 12:56:59;;;;;;;26.67;23.88;;;9.80;99.90;;;;;;4979184;28;20118;-73
2023/02/13 12:59:37;;;;;;;27.45;24.65;;;9.70;99.90;;;;;;4998998;28;20049;-73
2023/02/13 13:02:03;;;;;;;28.15;25.23;;;9.70;99.90;;;;;;4999353;28;21125;-73
2023/02/13 13:04:47;;;;;;;25.65;23.10;;;9.70;99.90;;;;;;4999061;28;20789;-73
2023/02/13 13:07:22;;;;;;;28.20;25.17;;;9.70;99.90;;;;;;4995346;28;20127;-71
2023/02/13 13:10:02;;;;;;;26.13;23.50;;;9.70;99.90;;;;;;4980051;28;21025;-71
2023/02/13 13:12:33;;;;;;;28.70;25.83;;;9.70;99.90;;;;;;4999742;28;20053;-71
2023/02/13 13:15:16;;;;;;;27.17;24.38;;;9.70;99.90;;;;;;4998520;28;20072;-71
2023/02/13 13:18:06;;;;;;;27.33;24.58;;;9.70;99.90;;;;;;5001097;28;20756;-71
2023/02/13 13:20:47;;;;;;;28.70;25.83;;;9.70;99.90;;;;;;4986073;28;20083;-71
2023/02/13 13:23:41;;;;;;;28.25;25.23;;;9.70;99.90;;;;;;5002382;28;21547;-71
2023/02/13 13:26:22;;;;;;;28.58;25.65;;;9.70;99.90;;;;;;4984162;28;20057;-71
2023/02/13 13:29:00;;;;;;;30.55;27.35;;;9.70;99.90;;;;;;4984953;28;20507;-73
2023/02/13 13:31:27;;;;;;;29.45;26.30;;;9.70;99.90;;;;;;4985367;28;20139;-71
2023/02/13 13:34:00;;;;;;;27.52;24.73;;;9.70;99.90;;;;;;4983122;28;20055;-72
2023/02/13 13:36:57;;;;;;;30.25;27.35;;;9.70;99.90;;;;;;4999689;28;20080;-71
2023/02/13 13:39:48;;;;;;;30.52;27.48;;;9.80;99.90;;;;;;4997355;28;20109;-71
2023/02/13 13:42:36;;;;;;;30.33;27.23;;;9.80;99.90;;;;;;5007111;28;20147;-72
2023/02/13 13:45:43;;;;;;;28.20;25.50;;;9.90;99.90;;;;;;4991075;28;20061;-72
2023/02/13 13:48:45;;;;;;;29.38;26.65;;;9.80;99.90;;;;;;5001791;28;20052;-73
2023/02/13 13:51:17;;;;;;;30.17;27.38;;;9.80;99.90;;;;;;4991847;28;20040;-71
2023/02/13 13:54:01;;;;;;;27.98;25.27;;;9.80;99.90;;;;;;5004056;28;20534;-71
2023/02/13 13:56:52;;;;;;;28.83;26.17;;;9.80;99.90;;;;;;5006747;28;20057;-73